Time;durP1;ratioP1;P1;durP2;ratioP2;P2;SDS_P1;SDS_P2;PMS_P1;PMS_P2;Temp;Humidity;BMP_temperature;BMP_pressure;BME280_temperature;BME280_humidity;BME280_pressure;Samples;Min_cycle;Max_cycle;Signal;HPM_P1;HPM_P2
2023/04/07 00:01:32;;;;;;;17.42;10.90;;;8.40;80.90;;;;;;5059228;28;20405;-72
2023/04/07 00:03:58;;;;;;;16.80;10.27;;;8.40;81.00;;;;;;5047881;28;20099;-71
2023/04/07 00:06:26;;;;;;;16.77;10.32;;;8.40;81.20;;;;;;5066440;28;20049;-72
2023/04/07 00:08:53;;;;;;;18.00;11.20;;;8.40;81.10;;;;;;5065091;28;20136;-72
2023/04/07 00:11:20;;;;;;;17.98;10.98;;;8.30;81.20;;;;;;5066134;28;20525;-71
2023/04/07 00:13:47;;;;;;;18.75;11.25;;;8.30;81.20;;;;;;5065889;28;20052;-72
2023/04/07 00:16:15;;;;;;;17.57;11.03;;;8.30;81.20;;;;;;5067374;28;20138;-72
2023/04/07 00:18:42;;;;;;;17.15;10.82;;;8.40;81.10;;;;;;5048923;28;20089;-71
2023/04/07 00:21:09;;;;;;;18.85;11.05;;;8.40;81.10;;;;;;5065303;28;20051;-71
2023/04/07 00:23:36;;;;;;;18.60;10.98;;;8.40;81.00;;;;;;5065005;28;20140;-72
2023/04/07 00:26:03;;;;;;;17.48;10.73;;;8.40;80.90;;;;;;5065949;28;20045;-72
2023/04/07 00:28:30;;;;;;;16.17;10.23;;;8.40;81.10;;;;;;5065893;28;20474;-72
2023/04/07 00:30:56;;;;;;;16.67;9.93;;;8.40;81.10;;;;;;5065730;28;20140;-72
2023/04/07 00:33:25;;;;;;;16.95;10.77;;;8.40;81.10;;;;;;5042316;28;20461;-72
2023/04/07 00:35:53;;;;;;;16.20;9.98;;;8.40;81.00;;;;;;5029636;28;20081;-72
2023/04/07 00:38:20;;;;;;;17.23;10.75;;;8.40;81.10;;;;;;5032475;28;20533;-72
2023/04/07 00:40:47;;;;;;;16.77;10.63;;;8.40;81.10;;;;;;5048569;28;20049;-72
2023/04/07 00:43:14;;;;;;;18.33;10.73;;;8.40;81.20;;;;;;5065223;28;20103;-72
2023/04/07 00:45:42;;;;;;;17.08;10.90;;;8.40;81.20;;;;;;5052575;28;20052;-72
2023/04/07 00:48:10;;;;;;;18.58;10.93;;;8.40;81.30;;;;;;5052538;28;20511;-72
2023/04/07 00:50:38;;;;;;;17.98;10.98;;;8.40;81.20;;;;;;5068484;28;20092;-72
2023/04/07 00:53:06;;;;;;;16.83;10.50;;;8.50;81.20;;;;;;5052411;28;20578;-72
2023/04/07 00:55:33;;;;;;;15.88;10.20;;;8.40;81.20;;;;;;5068769;28;20576;-71
2023/04/07 00:58:00;;;;;;;18.23;11.20;;;8.50;81.30;;;;;;5069197;28;20058;-72
2023/04/07 01:00:27;;;;;;;18.65;10.65;;;8.50;81.20;;;;;;5068488;28;20044;-72
2023/04/07 01:02:59;;;;;;;18.60;10.38;;;8.50;81.10;;;;;;5068854;28;20094;-72
2023/04/07 01:05:35;;;;;;;16.90;10.83;;;8.40;81.30;;;;;;5045756;28;20136;-72
2023/04/07 01:08:12;;;;;;;16.55;10.48;;;8.40;81.20;;;;;;5031671;28;20046;-72
2023/04/07 01:10:48;;;;;;;17.50;10.60;;;8.50;81.40;;;;;;5044049;28;20514;-72
2023/04/07 01:13:24;;;;;;;17.58;10.70;;;8.40;81.40;;;;;;5063591;28;20084;-72
2023/04/07 01:15:57;;;;;;;18.02;10.68;;;8.40;81.30;;;;;;5047074;28;20485;-72
2023/04/07 01:18:32;;;;;;;17.23;10.47;;;8.40;81.50;;;;;;5046134;28;20049;-72
2023/04/07 01:21:03;;;;;;;18.08;11.05;;;8.40;81.60;;;;;;5068234;28;20053;-72
2023/04/07 01:23:55;;;;;;;16.23;10.68;;;8.40;81.60;;;;;;5051445;28;20057;-72
2023/04/07 01:26:27;;;;;;;16.95;10.27;;;8.40;81.60;;;;;;5051811;28;20076;-72
2023/04/07 01:29:30;;;;;;;18.63;11.55;;;8.40;81.60;;;;;;5051398;28;20477;-72
2023/04/07 01:32:00;;;;;;;16.13;9.43;;;8.40;81.70;;;;;;5068266;28;20136;-72
2023/04/07 01:34:29;;;;;;;16.85;10.40;;;8.50;81.60;;;;;;5051262;28;20499;-72
2023/04/07 01:36:59;;;;;;;15.18;9.48;;;8.50;81.50;;;;;;5051421;28;20055;-72
2023/04/07 01:39:28;;;;;;;15.48;10.05;;;8.50;81.50;;;;;;5062289;28;20178;-72
2023/04/07 01:41:55;;;;;;;16.08;10.00;;;8.50;81.50;;;;;;5057445;28;20054;-72
2023/04/07 01:44:24;;;;;;;15.87;10.37;;;8.50;81.50;;;;;;5050467;28;20084;-72
2023/04/07 01:46:53;;;;;;;15.75;9.88;;;8.50;81.50;;;;;;5059546;28;20052;-72
2023/04/07 01:49:21;;;;;;;15.27;9.27;;;8.50;81.50;;;;;;5049900;28;20056;-72
2023/04/07 01:51:50;;;;;;;16.45;10.43;;;8.50;81.30;;;;;;5047616;28;20056;-72
2023/04/07 01:54:18;;;;;;;15.95;10.15;;;8.50;81.20;;;;;;5055323;28;20053;-72
2023/04/07 01:56:45;;;;;;;17.57;10.33;;;8.50;81.30;;;;;;5049572;28;20482;-72
2023/04/07 01:59:13;;;;;;;15.52;10.30;;;8.50;81.30;;;;;;5049879;28;20049;-72
2023/04/07 02:01:40;;;;;;;15.88;9.65;;;8.50;81.30;;;;;;5067939;28;20045;-72
2023/04/07 02:04:13;;;;;;;14.73;9.40;;;8.50;81.40;;;;;;5068157;28;20183;-72
2023/04/07 02:06:47;;;;;;;16.42;10.30;;;8.50;81.40;;;;;;5068080;28;20053;-72
2023/04/07 02:09:16;;;;;;;15.77;9.80;;;8.50;81.40;;;;;;5049983;28;20059;-72
2023/04/07 02:11:45;;;;;;;16.83;10.15;;;8.60;81.40;;;;;;5067473;28;20123;-72
2023/04/07 02:14:14;;;;;;;17.27;10.35;;;8.50;81.60;;;;;;5067923;28;20136;-72
2023/04/07 02:16:59;;;;;;;15.40;9.07;;;8.50;81.50;;;;;;5042593;28;20053;-72
2023/04/07 02:19:29;;;;;;;15.10;9.07;;;8.50;81.60;;;;;;5067005;28;20123;-72
2023/04/07 02:21:56;;;;;;;13.67;8.63;;;8.50;81.60;;;;;;5050281;28;20045;-72
2023/04/07 02:24:23;;;;;;;14.52;9.02;;;8.50;81.60;;;;;;5050832;28;20601;-72
2023/04/07 02:26:50;;;;;;;13.88;8.95;;;8.50;81.40;;;;;;5067921;28;20238;-71
2023/04/07 02:29:17;;;;;;;13.95;8.30;;;8.50;81.40;;;;;;5066720;28;20053;-72
2023/04/07 02:31:44;;;;;;;13.57;8.73;;;8.50;81.50;;;;;;5067043;28;20140;-72
2023/04/07 02:34:11;;;;;;;14.37;8.63;;;8.50;81.60;;;;;;5054452;28;20048;-72
2023/04/07 02:36:40;;;;;;;13.10;8.32;;;8.50;81.70;;;;;;5050426;28;20491;-72
2023/04/07 02:39:07;;;;;;;13.70;8.45;;;8.50;81.60;;;;;;5066810;28;20537;-72
2023/04/07 02:41:34;;;;;;;12.95;8.68;;;8.50;81.70;;;;;;5050336;28;20056;-72
2023/04/07 02:44:01;;;;;;;13.20;8.13;;;8.50;81.70;;;;;;5066991;28;20511;-72
2023/04/07 02:46:28;;;;;;;13.87;8.30;;;8.50;81.70;;;;;;5065447;28;20053;-73
2023/04/07 02:48:55;;;;;;;11.95;8.15;;;8.50;81.60;;;;;;5072063;28;20580;-73
2023/04/07 02:51:22;;;;;;;14.57;8.70;;;8.50;81.70;;;;;;5044728;28;20132;-73
2023/04/07 02:53:50;;;;;;;13.10;8.15;;;8.50;81.70;;;;;;5043350;28;20045;-73
2023/04/07 02:56:18;;;;;;;13.57;8.32;;;8.50;81.50;;;;;;5061846;28;20108;-73
2023/04/07 02:58:45;;;;;;;12.50;7.97;;;8.50;81.50;;;;;;5046069;28;20053;-73
2023/04/07 03:01:13;;;;;;;13.80;8.57;;;8.60;81.40;;;;;;5061449;28;20049;-73
2023/04/07 03:03:41;;;;;;;14.20;8.77;;;8.60;81.40;;;;;;5038255;28;20050;-73
2023/04/07 03:06:18;;;;;;;12.75;7.90;;;8.60;81.20;;;;;;5039073;28;20057;-73
2023/04/07 03:09:13;;;;;;;12.73;7.78;;;8.60;81.20;;;;;;5048642;28;20061;-73
2023/04/07 03:11:40;;;;;;;14.03;8.33;;;8.60;81.20;;;;;;5049771;28;20133;-73
2023/04/07 03:14:08;;;;;;;13.43;8.07;;;8.60;81.40;;;;;;5045836;28;20147;-74
2023/04/07 03:16:42;;;;;;;12.77;8.43;;;8.60;81.10;;;;;;5058547;28;20515;-73
2023/04/07 03:19:12;;;;;;;12.90;8.13;;;8.60;81.00;;;;;;5049280;28;20041;-73
2023/04/07 03:21:43;;;;;;;13.40;8.27;;;8.60;81.00;;;;;;5066308;28;20053;-73
2023/04/07 03:24:10;;;;;;;12.93;8.37;;;8.70;80.80;;;;;;5050039;28;20056;-73
2023/04/07 03:26:38;;;;;;;12.48;7.97;;;8.70;81.00;;;;;;5049604;28;20048;-73
2023/04/07 03:29:11;;;;;;;13.80;8.98;;;8.70;81.10;;;;;;5066825;28;20045;-73
2023/04/07 03:31:40;;;;;;;12.88;8.45;;;8.70;81.00;;;;;;5066613;28;20052;-73
2023/04/07 03:34:08;;;;;;;13.65;9.25;;;8.70;80.80;;;;;;5040923;28;20045;-73
2023/04/07 03:36:35;;;;;;;13.83;8.67;;;8.70;81.00;;;;;;5066549;28;20103;-73
2023/04/07 03:39:05;;;;;;;13.88;8.35;;;8.70;81.20;;;;;;5049273;28;20045;-73
2023/04/07 03:41:33;;;;;;;13.88;9.02;;;8.60;81.10;;;;;;5049314;28;20047;-73
2023/04/07 03:44:01;;;;;;;13.48;8.77;;;8.60;81.10;;;;;;5050007;28;20156;-73
2023/04/07 03:46:30;;;;;;;13.02;8.95;;;8.60;81.20;;;;;;5048839;28;20052;-73
2023/04/07 03:49:00;;;;;;;14.40;9.17;;;8.60;81.20;;;;;;5049403;28;20531;-73
2023/04/07 03:51:27;;;;;;;14.13;8.90;;;8.60;81.10;;;;;;5057490;28;20089;-73
2023/04/07 03:53:56;;;;;;;14.52;9.45;;;8.60;81.20;;;;;;5046091;28;20530;-73
2023/04/07 03:56:32;;;;;;;14.50;9.02;;;8.60;81.10;;;;;;5048902;28;20056;-73
2023/04/07 03:59:00;;;;;;;15.30;9.75;;;8.70;81.20;;;;;;5048617;28;20049;-73
2023/04/07 04:01:32;;;;;;;14.37;9.23;;;8.70;81.00;;;;;;5049345;28;20045;-73
2023/04/07 04:04:06;;;;;;;16.52;10.07;;;8.70;81.00;;;;;;5049472;28;20052;-73
2023/04/07 04:06:33;;;;;;;15.50;9.23;;;8.70;81.00;;;;;;5049110;28;20041;-73
2023/04/07 04:09:22;;;;;;;15.93;9.88;;;8.80;81.00;;;;;;5058510;28;20168;-73
2023/04/07 04:11:49;;;;;;;13.73;9.25;;;8.70;80.80;;;;;;5065628;28;20208;-73
2023/04/07 04:14:18;;;;;;;14.37;9.40;;;8.80;81.00;;;;;;5049134;28;20056;-73
2023/04/07 04:16:52;;;;;;;13.35;8.50;;;8.70;81.20;;;;;;5065830;28;20658;-73
2023/04/07 04:19:27;;;;;;;14.10;8.70;;;8.70;81.20;;;;;;5050256;28;20511;-74
2023/04/07 04:21:56;;;;;;;13.93;8.57;;;8.70;81.10;;;;;;5052424;28;20116;-73
2023/04/07 04:24:23;;;;;;;12.70;8.13;;;8.70;81.10;;;;;;5052610;28;20045;-73
2023/04/07 04:26:50;;;;;;;13.30;8.80;;;8.80;80.90;;;;;;5032563;28;20661;-73
2023/04/07 04:29:19;;;;;;;14.10;8.77;;;8.80;81.00;;;;;;5031958;28;20078;-73
2023/04/07 04:31:46;;;;;;;12.40;7.78;;;8.80;80.80;;;;;;5051333;28;20057;-73
2023/04/07 04:34:14;;;;;;;12.45;8.07;;;8.80;80.80;;;;;;5050751;28;20143;-73
2023/04/07 04:36:42;;;;;;;15.38;8.90;;;8.80;80.60;;;;;;5051028;28;20072;-73
2023/04/07 04:39:10;;;;;;;13.80;8.47;;;8.80;80.60;;;;;;5051810;28;20045;-73
2023/04/07 04:41:38;;;;;;;13.23;8.27;;;8.80;80.50;;;;;;5068673;28;20059;-73
2023/04/07 04:44:06;;;;;;;12.63;7.65;;;8.80;80.60;;;;;;5052113;28;20734;-73
2023/04/07 04:46:34;;;;;;;12.88;8.10;;;8.90;80.40;;;;;;5051751;28;20055;-73
2023/04/07 04:49:01;;;;;;;12.23;8.07;;;8.90;80.50;;;;;;5068558;28;20507;-73
2023/04/07 04:51:29;;;;;;;11.77;7.97;;;8.90;80.40;;;;;;5068453;28;20123;-73
2023/04/07 04:54:05;;;;;;;12.70;8.30;;;8.90;80.50;;;;;;5051776;28;20053;-73
2023/04/07 04:56:32;;;;;;;13.65;8.27;;;8.80;80.50;;;;;;5068655;28;20496;-73
2023/04/07 04:58:59;;;;;;;12.57;7.72;;;8.90;80.40;;;;;;5051223;28;20042;-73
2023/04/07 05:01:42;;;;;;;10.77;7.60;;;8.80;80.40;;;;;;5051078;28;20641;-73
2023/04/07 05:04:15;;;;;;;12.07;7.63;;;8.90;80.40;;;;;;5068538;28;20049;-73
2023/04/07 05:06:48;;;;;;;12.35;7.82;;;8.90;80.50;;;;;;5049882;28;20160;-73
2023/04/07 05:09:18;;;;;;;11.90;8.13;;;8.90;80.60;;;;;;5051352;28;20045;-73
2023/04/07 05:11:48;;;;;;;12.70;8.05;;;8.90;80.40;;;;;;5051033;28;20049;-73
2023/04/07 05:14:15;;;;;;;12.70;7.97;;;8.80;80.50;;;;;;5047942;28;20053;-73
2023/04/07 05:16:51;;;;;;;14.07;8.53;;;8.80;80.40;;;;;;5048350;28;20104;-73
2023/04/07 05:19:22;;;;;;;12.45;7.95;;;8.80;80.50;;;;;;5063000;28;20049;-73
2023/04/07 05:21:52;;;;;;;12.90;8.65;;;8.80;80.70;;;;;;5064332;28;20541;-73
2023/04/07 05:24:21;;;;;;;14.52;8.65;;;8.80;80.70;;;;;;5049275;28;20069;-73
2023/04/07 05:26:55;;;;;;;14.20;8.52;;;8.80;80.70;;;;;;5048106;28;20519;-73
2023/04/07 05:29:22;;;;;;;14.10;8.23;;;8.80;80.70;;;;;;5052530;28;20592;-73
2023/04/07 05:31:51;;;;;;;13.50;8.38;;;8.70;80.70;;;;;;5046677;28;20045;-73
2023/04/07 05:34:21;;;;;;;14.88;8.90;;;8.70;80.80;;;;;;5042452;28;20052;-73
2023/04/07 05:36:53;;;;;;;14.02;7.80;;;8.70;80.70;;;;;;5063087;28;20044;-73
2023/04/07 05:39:21;;;;;;;13.30;8.30;;;8.70;80.70;;;;;;5064663;28;20076;-73
2023/04/07 05:41:52;;;;;;;12.33;7.93;;;8.80;80.50;;;;;;5065332;28;20574;-73
2023/04/07 05:44:21;;;;;;;12.88;8.25;;;8.80;80.40;;;;;;5044838;28;20047;-73
2023/04/07 05:46:48;;;;;;;14.05;8.93;;;8.80;80.40;;;;;;5060704;28;20080;-73
2023/04/07 05:49:18;;;;;;;13.02;8.25;;;8.80;80.50;;;;;;5065185;28;20052;-73
2023/04/07 05:51:47;;;;;;;13.65;8.65;;;8.80;80.50;;;;;;5066899;28;20053;-73
2023/04/07 05:54:15;;;;;;;14.63;8.37;;;8.80;80.50;;;;;;5049410;28;20056;-73
2023/04/07 05:56:43;;;;;;;14.30;9.10;;;8.80;80.60;;;;;;5049939;28;20553;-73
2023/04/07 05:59:10;;;;;;;15.52;8.63;;;8.80;80.60;;;;;;5045087;28;20098;-73
2023/04/07 06:01:37;;;;;;;15.30;8.88;;;8.80;80.50;;;;;;5064690;28;20057;-73
2023/04/07 06:04:04;;;;;;;13.35;8.48;;;8.90;80.40;;;;;;5067095;28;20119;-73
2023/04/07 06:06:32;;;;;;;14.27;8.77;;;8.80;80.50;;;;;;5067310;28;20102;-73
2023/04/07 06:09:00;;;;;;;16.58;9.60;;;8.80;80.60;;;;;;5048539;28;20130;-73
2023/04/07 06:11:28;;;;;;;15.70;9.88;;;8.80;80.60;;;;;;5045861;28;20052;-73
2023/04/07 06:13:55;;;;;;;16.27;9.75;;;8.80;80.60;;;;;;5060673;28;20132;-73
2023/04/07 06:16:22;;;;;;;16.02;9.55;;;8.80;80.60;;;;;;5062500;28;20075;-73
2023/04/07 06:18:50;;;;;;;16.87;9.77;;;8.80;80.70;;;;;;5044659;28;20045;-73
2023/04/07 06:21:17;;;;;;;17.33;9.73;;;8.80;80.70;;;;;;5060380;28;20047;-73
2023/04/07 06:23:46;;;;;;;15.82;9.73;;;8.80;80.70;;;;;;5044252;28;20080;-73
2023/04/07 06:26:13;;;;;;;15.85;9.43;;;8.80;80.60;;;;;;5064096;28;20057;-73
2023/04/07 06:28:41;;;;;;;16.92;9.60;;;8.80;80.60;;;;;;5042196;28;20620;-73
2023/04/07 06:31:08;;;;;;;15.20;9.13;;;8.80;80.70;;;;;;5059491;28;20052;-73
2023/04/07 06:33:36;;;;;;;15.90;9.98;;;8.80;80.60;;;;;;5047078;28;20049;-73
2023/04/07 06:36:04;;;;;;;15.90;9.75;;;8.80;80.70;;;;;;5059785;28;20066;-73
2023/04/07 06:38:31;;;;;;;16.17;9.77;;;8.80;80.70;;;;;;5065953;28;20053;-73
2023/04/07 06:41:00;;;;;;;17.20;10.07;;;8.80;80.70;;;;;;5044983;28;20962;-73
2023/04/07 06:43:27;;;;;;;15.77;10.20;;;8.80;80.80;;;;;;5058750;28;20129;-73
2023/04/07 06:45:58;;;;;;;16.83;10.70;;;8.80;80.90;;;;;;5061468;28;20585;-73
2023/04/07 06:48:25;;;;;;;17.95;9.68;;;8.80;81.00;;;;;;5064408;28;20060;-73
2023/04/07 06:50:52;;;;;;;16.20;9.75;;;8.80;81.10;;;;;;5053569;28;20061;-73
2023/04/07 06:53:19;;;;;;;16.83;9.80;;;8.80;81.20;;;;;;5065620;28;20053;-73
2023/04/07 06:55:47;;;;;;;16.40;9.90;;;8.80;81.20;;;;;;5059982;28;20807;-73
2023/04/07 06:58:15;;;;;;;17.17;10.25;;;8.80;81.20;;;;;;5067144;28;20132;-73
2023/04/07 07:00:42;;;;;;;16.20;10.07;;;8.70;81.60;;;;;;5059215;28;20561;-74
2023/04/07 07:03:09;;;;;;;18.05;10.88;;;8.70;81.90;;;;;;5056020;28;20068;-74
2023/04/07 07:05:36;;;;;;;17.58;9.85;;;8.70;82.00;;;;;;5060191;28;20055;-74
2023/04/07 07:08:03;;;;;;;16.67;9.70;;;8.60;82.10;;;;;;5062271;28;20076;-73
2023/04/07 07:10:31;;;;;;;17.98;9.63;;;8.70;82.10;;;;;;5058533;28;20071;-73
2023/04/07 07:12:58;;;;;;;16.67;10.02;;;8.70;82.30;;;;;;5061548;28;20080;-73
2023/04/07 07:15:26;;;;;;;16.50;10.18;;;8.70;82.20;;;;;;5062760;28;20187;-73
2023/04/07 07:17:53;;;;;;;17.23;10.07;;;8.70;82.30;;;;;;5063264;28;20140;-74
2023/04/07 07:20:22;;;;;;;16.90;9.87;;;8.80;82.30;;;;;;5061731;28;20057;-73
2023/04/07 07:22:49;;;;;;;19.33;10.93;;;8.80;82.30;;;;;;5066112;28;20061;-74
2023/04/07 07:25:16;;;;;;;16.73;10.35;;;8.80;82.10;;;;;;5060999;28;20502;-74
2023/04/07 07:27:44;;;;;;;17.30;9.98;;;8.80;82.10;;;;;;5058992;28;20548;-73
2023/04/07 07:30:11;;;;;;;16.55;10.23;;;8.80;82.50;;;;;;5058042;28;20049;-74
2023/04/07 07:32:40;;;;;;;17.13;10.10;;;8.80;82.40;;;;;;5064772;28;20140;-73
2023/04/07 07:35:07;;;;;;;17.23;10.23;;;8.80;82.30;;;;;;5063555;28;20088;-74
2023/04/07 07:37:34;;;;;;;17.65;10.77;;;8.80;82.30;;;;;;5061592;28;20206;-73
2023/04/07 07:40:02;;;;;;;18.25;10.88;;;8.90;82.20;;;;;;5061398;28;20605;-73
2023/04/07 07:42:30;;;;;;;18.67;10.32;;;8.90;82.30;;;;;;5059061;28;20108;-74
2023/04/07 07:44:57;;;;;;;18.97;11.57;;;8.90;82.20;;;;;;5058132;28;20130;-73
2023/04/07 07:47:25;;;;;;;17.85;10.35;;;8.90;82.20;;;;;;5060270;28;20044;-73
2023/04/07 07:49:53;;;;;;;18.10;10.77;;;9.00;82.10;;;;;;5058702;28;20526;-73
2023/04/07 07:52:20;;;;;;;17.17;10.40;;;9.00;82.10;;;;;;5062689;28;20569;-73
2023/04/07 07:54:48;;;;;;;14.82;9.50;;;9.00;82.20;;;;;;5046225;28;20128;-73
2023/04/07 07:57:15;;;;;;;15.53;9.73;;;9.00;82.20;;;;;;5067440;28;20968;-73
2023/04/07 07:59:42;;;;;;;16.55;9.90;;;9.00;82.20;;;;;;5049215;28;20506;-74
2023/04/07 08:02:10;;;;;;;15.52;9.18;;;9.00;82.30;;;;;;5068217;28;21002;-73
2023/04/07 08:04:37;;;;;;;16.20;9.75;;;9.00;82.30;;;;;;5073093;28;20057;-73
2023/04/07 08:07:05;;;;;;;15.30;9.35;;;9.00;82.30;;;;;;5071908;28;20052;-74
2023/04/07 08:09:32;;;;;;;16.13;9.33;;;9.00;82.30;;;;;;5067401;28;20128;-74
2023/04/07 08:12:00;;;;;;;16.50;9.90;;;9.10;82.10;;;;;;5072057;28;20055;-74
2023/04/07 08:14:27;;;;;;;15.85;9.85;;;9.10;82.20;;;;;;5068139;28;20057;-74
2023/04/07 08:16:54;;;;;;;15.80;9.30;;;9.10;82.20;;;;;;5069258;28;20538;-74
2023/04/07 08:19:21;;;;;;;16.95;9.60;;;9.20;82.20;;;;;;5064152;28;20064;-74
2023/04/07 08:21:48;;;;;;;14.37;9.20;;;9.20;82.10;;;;;;5057217;28;20100;-74
2023/04/07 08:24:17;;;;;;;16.00;9.48;;;9.20;82.20;;;;;;5070322;28;20103;-74
2023/04/07 08:26:44;;;;;;;14.95;9.18;;;9.20;82.10;;;;;;5069426;28;20064;-73
2023/04/07 08:29:12;;;;;;;16.92;9.73;;;9.20;82.30;;;;;;5069355;28;20114;-73
2023/04/07 08:31:39;;;;;;;13.73;9.02;;;9.20;82.20;;;;;;5072084;28;20067;-73
2023/04/07 08:34:06;;;;;;;14.83;8.50;;;9.20;82.10;;;;;;5072233;28;20059;-74
2023/04/07 08:36:33;;;;;;;13.13;7.65;;;9.20;82.30;;;;;;5068311;28;20048;-74
2023/04/07 08:39:01;;;;;;;12.93;8.07;;;9.20;82.10;;;;;;5070336;28;20144;-74
2023/04/07 08:41:33;;;;;;;12.90;7.97;;;9.20;82.50;;;;;;5068978;28;20107;-75
2023/04/07 08:44:02;;;;;;;12.52;8.07;;;9.20;82.60;;;;;;5068711;28;20049;-74
2023/04/07 08:46:29;;;;;;;12.07;7.17;;;9.30;82.70;;;;;;5068437;28;20053;-74
2023/04/07 08:48:57;;;;;;;13.57;8.20;;;9.30;82.80;;;;;;5070011;28;20060;-74
2023/04/07 08:51:30;;;;;;;11.48;7.47;;;9.30;82.70;;;;;;5069613;28;20140;-74
2023/04/07 08:54:06;;;;;;;13.77;8.07;;;9.40;82.50;;;;;;5068052;28;20053;-75
2023/04/07 08:56:34;;;;;;;13.02;8.05;;;9.40;82.70;;;;;;5065327;28;20053;-74
2023/04/07 08:59:02;;;;;;;12.83;8.17;;;9.40;82.70;;;;;;5049870;28;20128;-73
2023/04/07 09:01:30;;;;;;;13.75;8.45;;;9.40;82.80;;;;;;5059891;28;20053;-73
2023/04/07 09:03:58;;;;;;;15.45;9.32;;;9.40;82.90;;;;;;5055397;28;20053;-73
2023/04/07 09:06:26;;;;;;;15.48;9.75;;;9.40;83.00;;;;;;5049618;28;20053;-73
2023/04/07 09:08:53;;;;;;;15.70;10.15;;;9.50;83.00;;;;;;5066940;28;20049;-71
2023/04/07 09:11:20;;;;;;;14.87;9.70;;;9.50;82.80;;;;;;5059116;28;20414;-71
2023/04/07 09:13:49;;;;;;;14.48;9.25;;;9.50;82.80;;;;;;5063419;28;20045;-71
2023/04/07 09:16:16;;;;;;;15.57;9.35;;;9.60;82.70;;;;;;5064195;28;20162;-71
2023/04/07 09:18:43;;;;;;;14.05;9.07;;;9.60;82.50;;;;;;5066614;28;20527;-71
2023/04/07 09:21:10;;;;;;;14.98;9.57;;;9.60;82.60;;;;;;5066942;28;20049;-71
2023/04/07 09:23:39;;;;;;;14.77;9.33;;;9.70;82.50;;;;;;5061491;28;20139;-71
2023/04/07 09:26:20;;;;;;;14.80;9.15;;;9.70;82.40;;;;;;5064152;28;20549;-71
2023/04/07 09:28:52;;;;;;;15.80;10.05;;;9.70;82.50;;;;;;5056458;28;20055;-71
2023/04/07 09:31:20;;;;;;;16.42;9.65;;;9.70;82.30;;;;;;5053048;28;20057;-71
2023/04/07 09:33:47;;;;;;;16.13;10.05;;;9.70;82.20;;;;;;5062606;28;20053;-71
2023/04/07 09:36:14;;;;;;;16.50;10.03;;;9.70;82.20;;;;;;5065870;28;20547;-71
2023/04/07 09:38:41;;;;;;;17.08;10.35;;;9.70;82.20;;;;;;5064302;28;20669;-71
2023/04/07 09:41:12;;;;;;;17.77;10.88;;;9.70;82.20;;;;;;5069145;28;20049;-70
2023/04/07 09:43:40;;;;;;;17.60;10.52;;;9.70;82.00;;;;;;5047737;28;20077;-70
2023/04/07 09:46:10;;;;;;;18.15;10.57;;;9.70;81.80;;;;;;5068970;28;20107;-71
2023/04/07 09:48:37;;;;;;;17.47;10.53;;;9.70;81.80;;;;;;5059768;28;20048;-71
2023/04/07 09:51:10;;;;;;;18.05;10.00;;;9.70;81.80;;;;;;5061176;28;20570;-71
2023/04/07 09:53:45;;;;;;;16.73;10.10;;;9.70;82.00;;;;;;5059750;28;20057;-70
2023/04/07 09:56:12;;;;;;;17.15;10.57;;;9.80;81.90;;;;;;5067603;28;20045;-71
2023/04/07 09:58:40;;;;;;;17.65;11.23;;;9.70;81.80;;;;;;5067464;28;20553;-71
2023/04/07 10:01:10;;;;;;;15.73;9.87;;;9.70;81.80;;;;;;5054486;28;20060;-71
2023/04/07 10:03:38;;;;;;;18.08;10.45;;;9.70;81.90;;;;;;5056971;28;20048;-71
2023/04/07 10:06:06;;;;;;;16.77;9.90;;;9.80;81.80;;;;;;5054038;28;20149;-71
2023/04/07 10:08:35;;;;;;;13.93;8.90;;;9.80;81.80;;;;;;5060594;28;20100;-71
2023/04/07 10:11:03;;;;;;;15.52;9.98;;;9.80;81.80;;;;;;5052316;28;20143;-71
2023/04/07 10:13:30;;;;;;;15.27;9.13;;;9.80;81.80;;;;;;5057424;28;20056;-70
2023/04/07 10:15:59;;;;;;;14.00;8.95;;;9.80;81.70;;;;;;5056985;28;20587;-71
2023/04/07 10:18:30;;;;;;;14.95;8.77;;;9.90;81.50;;;;;;5056703;28;20128;-71
2023/04/07 10:21:00;;;;;;;13.38;8.18;;;9.90;81.20;;;;;;5061532;28;20049;-71
2023/04/07 10:23:40;;;;;;;13.48;8.00;;;9.90;81.00;;;;;;5063465;28;20143;-71
2023/04/07 10:26:08;;;;;;;11.50;6.67;;;9.90;81.10;;;;;;5059673;28;20127;-71
2023/04/07 10:28:41;;;;;;;10.63;6.95;;;9.90;80.90;;;;;;5055421;28;20139;-70
2023/04/07 10:31:09;;;;;;;11.30;7.07;;;9.90;81.00;;;;;;5059846;28;20053;-71
2023/04/07 10:33:49;;;;;;;11.70;6.57;;;9.80;81.00;;;;;;5055748;28;20052;-71
2023/04/07 10:36:17;;;;;;;9.48;5.43;;;9.90;81.20;;;;;;5067736;28;20659;-71
2023/04/07 10:39:18;;;;;;;9.30;5.60;;;9.90;81.30;;;;;;5067320;28;20120;-72
2023/04/07 10:41:45;;;;;;;7.60;4.10;;;9.90;81.30;;;;;;5063613;28;20802;-72
2023/04/07 10:44:59;;;;;;;7.97;4.18;;;10.00;81.40;;;;;;5060208;28;20582;-72
2023/04/07 10:47:27;;;;;;;7.68;3.90;;;10.00;81.40;;;;;;5056165;28;20105;-72
2023/04/07 10:50:17;;;;;;;7.43;4.00;;;10.00;81.20;;;;;;5055254;28;20045;-72
2023/04/07 10:52:48;;;;;;;7.80;3.93;;;10.00;81.00;;;;;;5043734;28;20057;-72
2023/04/07 10:55:38;;;;;;;8.02;4.20;;;10.00;80.80;;;;;;5067152;28;20056;-72
2023/04/07 10:58:24;;;;;;;7.35;4.00;;;10.00;80.60;;;;;;5068165;28;20616;-72
2023/04/07 11:01:18;;;;;;;9.52;4.80;;;10.00;80.50;;;;;;5061192;28;20191;-72
2023/04/07 11:03:57;;;;;;;8.10;4.38;;;10.00;80.50;;;;;;5060034;28;20057;-72
2023/04/07 11:06:26;;;;;;;7.03;4.23;;;10.10;80.60;;;;;;5059297;28;20041;-71
2023/04/07 11:08:53;;;;;;;8.02;4.20;;;10.10;80.60;;;;;;5056664;28;20080;-72
2023/04/07 11:11:41;;;;;;;7.20;4.05;;;10.10;80.40;;;;;;5062204;28;20077;-72
2023/04/07 11:14:08;;;;;;;7.68;3.97;;;10.10;80.60;;;;;;5062519;28;20056;-72
2023/04/07 11:16:44;;;;;;;7.50;3.47;;;10.10;80.70;;;;;;5063987;28;20135;-72
2023/04/07 11:19:11;;;;;;;5.80;3.23;;;10.20;80.70;;;;;;5046715;28;20656;-72
2023/04/07 11:21:40;;;;;;;6.35;3.25;;;10.20;80.60;;;;;;5055709;28;20073;-72
2023/04/07 11:24:08;;;;;;;6.55;3.22;;;10.20;80.40;;;;;;5062171;28;20103;-72
2023/04/07 11:26:40;;;;;;;6.28;3.60;;;10.20;80.30;;;;;;5051368;28;20045;-72
2023/04/07 11:29:07;;;;;;;6.95;3.67;;;10.30;80.20;;;;;;5037233;28;20052;-72
2023/04/07 11:31:35;;;;;;;7.30;3.97;;;10.30;80.20;;;;;;5059451;28;20052;-72
2023/04/07 11:34:03;;;;;;;8.02;3.97;;;10.40;80.10;;;;;;5066822;28;20135;-72
2023/04/07 11:36:32;;;;;;;8.10;4.55;;;10.40;79.70;;;;;;5065665;28;20585;-72
2023/04/07 11:39:02;;;;;;;8.00;4.20;;;10.40;79.60;;;;;;5065453;28;20080;-72
2023/04/07 11:41:31;;;;;;;6.75;3.78;;;10.40;79.50;;;;;;5063696;28;20084;-72
2023/04/07 11:44:06;;;;;;;7.43;3.90;;;10.40;79.40;;;;;;5054910;28;20102;-71
2023/04/07 11:46:33;;;;;;;8.00;3.85;;;10.40;79.40;;;;;;5053991;28;20051;-72
2023/04/07 11:49:12;;;;;;;6.47;3.58;;;10.40;79.10;;;;;;5060084;28;20108;-72
2023/04/07 11:51:39;;;;;;;7.32;4.22;;;10.40;79.00;;;;;;5073212;28;20097;-72
2023/04/07 11:54:08;;;;;;;7.45;3.70;;;10.30;78.70;;;;;;5057531;28;21112;-73
2023/04/07 11:56:44;;;;;;;8.17;4.13;;;10.30;78.70;;;;;;5061766;28;20162;-72
2023/04/07 11:59:21;;;;;;;9.00;4.03;;;10.30;78.90;;;;;;5062041;28;20041;-72
2023/04/07 12:01:49;;;;;;;7.88;4.10;;;10.30;78.90;;;;;;5065289;28;20150;-73
2023/04/07 12:04:17;;;;;;;8.35;4.38;;;10.30;78.60;;;;;;5065408;28;20511;-73
2023/04/07 12:06:45;;;;;;;7.72;3.88;;;10.30;78.70;;;;;;5060681;28;20049;-73
2023/04/07 12:09:28;;;;;;;8.00;4.20;;;10.40;78.70;;;;;;5041479;28;20045;-73
2023/04/07 12:11:56;;;;;;;8.05;4.38;;;10.40;78.80;;;;;;5056369;28;20057;-73
2023/04/07 12:14:24;;;;;;;7.32;4.20;;;10.40;78.70;;;;;;5060740;28;20662;-72
2023/04/07 12:16:51;;;;;;;9.13;4.85;;;10.40;78.80;;;;;;5059353;28;20060;-73
2023/04/07 12:19:18;;;;;;;8.05;4.55;;;10.40;78.90;;;;;;5061960;28;20586;-73
2023/04/07 12:21:46;;;;;;;8.20;4.47;;;10.40;79.00;;;;;;5056906;28;20049;-73
2023/04/07 12:24:13;;;;;;;8.75;4.78;;;10.50;78.90;;;;;;5064460;28;20084;-73
2023/04/07 12:26:42;;;;;;;8.20;4.40;;;10.50;78.70;;;;;;5057589;28;20100;-73
2023/04/07 12:29:09;;;;;;;9.00;4.78;;;10.50;78.60;;;;;;5062146;28;20060;-73
2023/04/07 12:31:36;;;;;;;8.57;4.90;;;10.50;78.70;;;;;;5069379;28;20053;-73
2023/04/07 12:34:03;;;;;;;9.13;4.80;;;10.50;78.50;;;;;;5060782;28;20041;-72
2023/04/07 12:36:30;;;;;;;9.55;5.32;;;10.50;78.40;;;;;;5061183;28;20108;-73
2023/04/07 12:38:58;;;;;;;8.77;5.30;;;10.50;78.50;;;;;;5045650;28;20038;-72
2023/04/07 12:41:26;;;;;;;9.52;5.40;;;10.50;78.50;;;;;;5057958;28;20052;-73
2023/04/07 12:43:55;;;;;;;10.00;5.88;;;10.50;78.60;;;;;;5069673;28;20056;-73
2023/04/07 12:46:22;;;;;;;10.43;5.90;;;10.60;78.50;;;;;;5060937;28;20107;-73
2023/04/07 12:48:50;;;;;;;10.50;5.70;;;10.60;78.50;;;;;;5068725;28;20773;-73
2023/04/07 12:51:17;;;;;;;9.43;5.80;;;10.60;78.60;;;;;;5063151;28;20057;-73
2023/04/07 12:53:46;;;;;;;8.90;5.35;;;10.60;78.50;;;;;;5046475;28;20562;-73
2023/04/07 12:56:13;;;;;;;10.50;5.75;;;10.60;78.50;;;;;;5059445;28;20766;-73